sensor_id;sensor_type;location;lat;lon;timestamp;P1;durP1;ratioP1;P2;durP2;ratioP2
51618;SDS011;38518;53.164;5.430;2023-02-15T00:01:43;148.88;;;42.90;;
51618;SDS011;38518;53.164;5.430;2023-02-15T00:04:10;300.20;;;52.05;;
51618;SDS011;38518;53.164;5.430;2023-02-15T00:06:38;245.50;;;45.85;;
51618;SDS011;38518;53.164;5.430;2023-02-15T00:09:04;406.48;;;55.05;;
51618;SDS011;38518;53.164;5.430;2023-02-15T00:11:30;453.88;;;77.20;;
51618;SDS011;38518;53.164;5.430;2023-02-15T00:14:05;352.50;;;63.65;;
51618;SDS011;38518;53.164;5.430;2023-02-15T00:16:33;198.93;;;45.00;;
51618;SDS011;38518;53.164;5.430;2023-02-15T00:18:58;720.55;;;101.57;;
51618;SDS011;38518;53.164;5.430;2023-02-15T00:21:27;456.77;;;67.00;;
51618;SDS011;38518;53.164;5.430;2023-02-15T00:23:54;228.30;;;51.53;;
51618;SDS011;38518;53.164;5.430;2023-02-15T00:26:20;576.40;;;66.82;;
51618;SDS011;38518;53.164;5.430;2023-02-15T00:28:46;361.13;;;65.15;;
51618;SDS011;38518;53.164;5.430;2023-02-15T00:31:12;321.70;;;47.17;;
51618;SDS011;38518;53.164;5.430;2023-02-15T00:33:38;334.52;;;53.55;;
51618;SDS011;38518;53.164;5.430;2023-02-15T00:36:05;356.95;;;56.35;;
51618;SDS011;38518;53.164;5.430;2023-02-15T00:38:32;174.80;;;41.10;;
51618;SDS011;38518;53.164;5.430;2023-02-15T00:40:59;405.73;;;66.53;;
51618;SDS011;38518;53.164;5.430;2023-02-15T00:43:27;404.75;;;68.20;;
51618;SDS011;38518;53.164;5.430;2023-02-15T00:45:53;470.63;;;79.82;;
51618;SDS011;38518;53.164;5.430;2023-02-15T00:48:20;245.73;;;52.08;;
51618;SDS011;38518;53.164;5.430;2023-02-15T00:50:48;170.02;;;38.58;;
51618;SDS011;38518;53.164;5.430;2023-02-15T00:53:15;184.70;;;41.63;;
51618;SDS011;38518;53.164;5.430;2023-02-15T00:55:40;881.20;;;121.88;;
51618;SDS011;38518;53.164;5.430;2023-02-15T00:58:07;547.45;;;62.08;;
51618;SDS011;38518;53.164;5.430;2023-02-15T01:00:34;329.38;;;46.83;;
51618;SDS011;38518;53.164;5.430;2023-02-15T01:02:59;911.25;;;112.60;;
51618;SDS011;38518;53.164;5.430;2023-02-15T01:05:25;726.28;;;93.00;;
51618;SDS011;38518;53.164;5.430;2023-02-15T01:07:51;396.20;;;58.33;;
51618;SDS011;38518;53.164;5.430;2023-02-15T01:10:17;235.15;;;41.58;;
51618;SDS011;38518;53.164;5.430;2023-02-15T01:12:43;550.15;;;82.55;;
51618;SDS011;38518;53.164;5.430;2023-02-15T01:15:09;447.77;;;54.30;;
51618;SDS011;38518;53.164;5.430;2023-02-15T01:17:35;280.10;;;43.58;;
51618;SDS011;38518;53.164;5.430;2023-02-15T01:20:01;454.85;;;52.80;;
51618;SDS011;38518;53.164;5.430;2023-02-15T01:22:27;421.15;;;59.30;;
51618;SDS011;38518;53.164;5.430;2023-02-15T01:24:52;274.20;;;43.15;;
51618;SDS011;38518;53.164;5.430;2023-02-15T01:27:18;377.98;;;51.13;;
51618;SDS011;38518;53.164;5.430;2023-02-15T01:29:44;200.13;;;37.22;;
51618;SDS011;38518;53.164;5.430;2023-02-15T01:32:10;521.38;;;59.00;;
51618;SDS011;38518;53.164;5.430;2023-02-15T01:34:35;331.77;;;45.10;;
51618;SDS011;38518;53.164;5.430;2023-02-15T01:37:01;251.85;;;41.42;;
51618;SDS011;38518;53.164;5.430;2023-02-15T01:39:27;316.55;;;42.88;;
51618;SDS011;38518;53.164;5.430;2023-02-15T01:41:52;262.45;;;42.20;;
51618;SDS011;38518;53.164;5.430;2023-02-15T01:47:30;199.45;;;39.50;;
51618;SDS011;38518;53.164;5.430;2023-02-15T01:49:59;257.77;;;39.78;;
51618;SDS011;38518;53.164;5.430;2023-02-15T01:52:35;219.93;;;36.80;;
51618;SDS011;38518;53.164;5.430;2023-02-15T01:55:04;301.17;;;48.78;;
51618;SDS011;38518;53.164;5.430;2023-02-15T01:57:31;164.10;;;33.40;;
51618;SDS011;38518;53.164;5.430;2023-02-15T01:59:58;145.70;;;33.70;;
51618;SDS011;38518;53.164;5.430;2023-02-15T02:02:26;125.38;;;35.72;;
51618;SDS011;38518;53.164;5.430;2023-02-15T02:04:54;191.02;;;35.65;;
51618;SDS011;38518;53.164;5.430;2023-02-15T02:07:26;271.85;;;47.67;;
51618;SDS011;38518;53.164;5.430;2023-02-15T02:09:53;196.00;;;38.55;;
51618;SDS011;38518;53.164;5.430;2023-02-15T02:12:20;483.52;;;77.78;;
51618;SDS011;38518;53.164;5.430;2023-02-15T02:14:47;203.93;;;38.67;;
51618;SDS011;38518;53.164;5.430;2023-02-15T02:27:42;283.30;;;41.75;;
51618;SDS011;38518;53.164;5.430;2023-02-15T02:33:23;250.75;;;40.88;;
51618;SDS011;38518;53.164;5.430;2023-02-15T02:46:20;263.13;;;42.35;;
51618;SDS011;38518;53.164;5.430;2023-02-15T02:48:52;509.13;;;70.65;;
51618;SDS011;38518;53.164;5.430;2023-02-15T02:51:18;681.58;;;85.30;;
51618;SDS011;38518;53.164;5.430;2023-02-15T02:53:54;275.15;;;44.10;;
51618;SDS011;38518;53.164;5.430;2023-02-15T02:58:48;308.40;;;45.22;;
51618;SDS011;38518;53.164;5.430;2023-02-15T03:03:53;222.82;;;38.88;;
51618;SDS011;38518;53.164;5.430;2023-02-15T03:09:29;345.10;;;46.65;;
51618;SDS011;38518;53.164;5.430;2023-02-15T03:12:06;528.85;;;63.22;;
51618;SDS011;38518;53.164;5.430;2023-02-15T03:14:34;392.02;;;47.60;;
51618;SDS011;38518;53.164;5.430;2023-02-15T03:17:01;316.75;;;44.33;;
51618;SDS011;38518;53.164;5.430;2023-02-15T03:19:30;228.82;;;35.08;;
51618;SDS011;38518;53.164;5.430;2023-02-15T03:22:00;251.40;;;40.20;;
51618;SDS011;38518;53.164;5.430;2023-02-15T03:24:36;335.23;;;43.42;;
51618;SDS011;38518;53.164;5.430;2023-02-15T03:27:15;240.43;;;36.45;;
51618;SDS011;38518;53.164;5.430;2023-02-15T03:29:46;234.32;;;36.50;;
51618;SDS011;38518;53.164;5.430;2023-02-15T03:32:16;347.60;;;45.80;;
51618;SDS011;38518;53.164;5.430;2023-02-15T03:34:43;258.42;;;40.58;;
51618;SDS011;38518;53.164;5.430;2023-02-15T03:39:53;164.55;;;33.63;;
51618;SDS011;38518;53.164;5.430;2023-02-15T03:43:01;194.50;;;32.25;;
51618;SDS011;38518;53.164;5.430;2023-02-15T03:45:37;95.40;;;28.02;;
51618;SDS011;38518;53.164;5.430;2023-02-15T03:48:20;132.88;;;30.13;;
51618;SDS011;38518;53.164;5.430;2023-02-15T03:50:54;121.43;;;29.77;;
51618;SDS011;38518;53.164;5.430;2023-02-15T03:53:48;126.45;;;29.40;;
51618;SDS011;38518;53.164;5.430;2023-02-15T03:56:15;94.85;;;27.52;;
51618;SDS011;38518;53.164;5.430;2023-02-15T03:58:41;79.28;;;27.92;;
51618;SDS011;38518;53.164;5.430;2023-02-15T04:01:26;256.65;;;69.38;;
51618;SDS011;38518;53.164;5.430;2023-02-15T04:04:18;73.65;;;28.02;;
51618;SDS011;38518;53.164;5.430;2023-02-15T04:06:45;50.13;;;25.83;;
51618;SDS011;38518;53.164;5.430;2023-02-15T04:09:11;54.40;;;26.27;;
51618;SDS011;38518;53.164;5.430;2023-02-15T04:11:57;55.97;;;26.67;;
51618;SDS011;38518;53.164;5.430;2023-02-15T04:14:23;67.15;;;26.92;;
51618;SDS011;38518;53.164;5.430;2023-02-15T04:17:08;57.15;;;27.05;;
51618;SDS011;38518;53.164;5.430;2023-02-15T04:19:34;54.72;;;24.98;;
51618;SDS011;38518;53.164;5.430;2023-02-15T04:22:19;54.95;;;27.20;;
51618;SDS011;38518;53.164;5.430;2023-02-15T04:25:03;70.68;;;26.25;;
51618;SDS011;38518;53.164;5.430;2023-02-15T04:27:39;94.93;;;29.23;;
51618;SDS011;38518;53.164;5.430;2023-02-15T04:30:06;98.30;;;31.48;;
51618;SDS011;38518;53.164;5.430;2023-02-15T04:32:33;99.63;;;30.02;;
51618;SDS011;38518;53.164;5.430;2023-02-15T04:34:59;109.25;;;29.17;;
51618;SDS011;38518;53.164;5.430;2023-02-15T04:37:25;103.45;;;31.60;;
51618;SDS011;38518;53.164;5.430;2023-02-15T04:39:51;99.18;;;29.52;;
51618;SDS011;38518;53.164;5.430;2023-02-15T04:42:17;80.65;;;28.83;;
51618;SDS011;38518;53.164;5.430;2023-02-15T04:44:43;71.20;;;31.17;;
51618;SDS011;38518;53.164;5.430;2023-02-15T04:47:08;97.80;;;32.80;;
51618;SDS011;38518;53.164;5.430;2023-02-15T04:49:34;53.25;;;30.00;;
51618;SDS011;38518;53.164;5.430;2023-02-15T04:52:00;66.35;;;27.58;;
51618;SDS011;38518;53.164;5.430;2023-02-15T04:54:26;88.03;;;30.13;;
51618;SDS011;38518;53.164;5.430;2023-02-15T04:56:51;62.10;;;28.60;;
51618;SDS011;38518;53.164;5.430;2023-02-15T04:59:17;68.97;;;29.25;;
51618;SDS011;38518;53.164;5.430;2023-02-15T05:01:43;61.33;;;28.88;;
51618;SDS011;38518;53.164;5.430;2023-02-15T05:04:08;63.35;;;28.35;;
51618;SDS011;38518;53.164;5.430;2023-02-15T05:06:34;52.30;;;29.02;;
51618;SDS011;38518;53.164;5.430;2023-02-15T05:09:00;46.40;;;27.23;;
51618;SDS011;38518;53.164;5.430;2023-02-15T05:11:26;47.40;;;27.77;;
51618;SDS011;38518;53.164;5.430;2023-02-15T05:13:52;47.55;;;28.20;;
51618;SDS011;38518;53.164;5.430;2023-02-15T05:16:18;52.38;;;31.27;;
51618;SDS011;38518;53.164;5.430;2023-02-15T05:18:43;44.70;;;28.05;;
51618;SDS011;38518;53.164;5.430;2023-02-15T05:21:09;44.78;;;27.15;;
51618;SDS011;38518;53.164;5.430;2023-02-15T05:23:35;67.70;;;30.90;;
51618;SDS011;38518;53.164;5.430;2023-02-15T05:26:01;37.10;;;28.05;;
51618;SDS011;38518;53.164;5.430;2023-02-15T05:28:45;38.95;;;28.08;;
51618;SDS011;38518;53.164;5.430;2023-02-15T05:31:15;46.90;;;27.65;;
51618;SDS011;38518;53.164;5.430;2023-02-15T05:33:43;51.63;;;28.35;;
51618;SDS011;38518;53.164;5.430;2023-02-15T05:36:09;66.07;;;29.13;;
51618;SDS011;38518;53.164;5.430;2023-02-15T05:38:35;46.15;;;29.70;;
51618;SDS011;38518;53.164;5.430;2023-02-15T05:41:05;38.17;;;27.67;;
51618;SDS011;38518;53.164;5.430;2023-02-15T05:43:31;43.75;;;30.45;;
51618;SDS011;38518;53.164;5.430;2023-02-15T05:45:57;49.10;;;32.05;;
51618;SDS011;38518;53.164;5.430;2023-02-15T05:48:24;59.75;;;33.08;;
51618;SDS011;38518;53.164;5.430;2023-02-15T05:51:01;49.58;;;29.88;;
51618;SDS011;38518;53.164;5.430;2023-02-15T05:53:32;71.05;;;29.23;;
51618;SDS011;38518;53.164;5.430;2023-02-15T05:56:00;76.75;;;32.35;;
51618;SDS011;38518;53.164;5.430;2023-02-15T05:58:31;68.30;;;31.98;;
51618;SDS011;38518;53.164;5.430;2023-02-15T06:01:08;68.75;;;30.27;;
51618;SDS011;38518;53.164;5.430;2023-02-15T06:03:42;53.13;;;31.08;;
51618;SDS011;38518;53.164;5.430;2023-02-15T06:06:08;55.95;;;30.80;;
51618;SDS011;38518;53.164;5.430;2023-02-15T06:08:35;48.63;;;30.67;;
51618;SDS011;38518;53.164;5.430;2023-02-15T06:11:02;55.22;;;31.17;;
51618;SDS011;38518;53.164;5.430;2023-02-15T06:13:28;54.20;;;34.25;;
51618;SDS011;38518;53.164;5.430;2023-02-15T06:15:54;49.38;;;31.00;;
51618;SDS011;38518;53.164;5.430;2023-02-15T06:18:20;52.78;;;32.42;;
51618;SDS011;38518;53.164;5.430;2023-02-15T06:20:46;47.08;;;30.88;;
51618;SDS011;38518;53.164;5.430;2023-02-15T06:23:12;49.70;;;31.80;;
51618;SDS011;38518;53.164;5.430;2023-02-15T06:25:38;47.55;;;30.90;;
51618;SDS011;38518;53.164;5.430;2023-02-15T06:28:04;52.72;;;33.10;;
51618;SDS011;38518;53.164;5.430;2023-02-15T06:30:30;53.13;;;31.77;;
51618;SDS011;38518;53.164;5.430;2023-02-15T06:32:55;58.20;;;34.15;;
51618;SDS011;38518;53.164;5.430;2023-02-15T06:35:21;53.42;;;33.95;;
51618;SDS011;38518;53.164;5.430;2023-02-15T06:37:47;56.58;;;35.65;;
51618;SDS011;38518;53.164;5.430;2023-02-15T06:40:13;57.90;;;35.35;;
51618;SDS011;38518;53.164;5.430;2023-02-15T06:42:39;61.33;;;36.30;;
51618;SDS011;38518;53.164;5.430;2023-02-15T06:45:06;64.40;;;36.47;;
51618;SDS011;38518;53.164;5.430;2023-02-15T06:47:32;65.40;;;36.80;;
51618;SDS011;38518;53.164;5.430;2023-02-15T06:49:58;61.03;;;35.47;;
51618;SDS011;38518;53.164;5.430;2023-02-15T06:52:24;60.10;;;36.05;;
51618;SDS011;38518;53.164;5.430;2023-02-15T06:54:49;64.75;;;35.97;;
51618;SDS011;38518;53.164;5.430;2023-02-15T06:57:15;65.60;;;37.33;;
51618;SDS011;38518;53.164;5.430;2023-02-15T06:59:41;59.88;;;35.90;;
51618;SDS011;38518;53.164;5.430;2023-02-15T07:02:08;58.20;;;35.03;;
51618;SDS011;38518;53.164;5.430;2023-02-15T07:04:35;53.08;;;32.80;;
51618;SDS011;38518;53.164;5.430;2023-02-15T07:07:01;53.13;;;35.05;;
51618;SDS011;38518;53.164;5.430;2023-02-15T07:09:27;66.40;;;36.38;;
51618;SDS011;38518;53.164;5.430;2023-02-15T07:11:53;60.60;;;34.00;;
51618;SDS011;38518;53.164;5.430;2023-02-15T07:14:37;54.13;;;31.55;;
51618;SDS011;38518;53.164;5.430;2023-02-15T07:17:02;55.53;;;33.33;;
51618;SDS011;38518;53.164;5.430;2023-02-15T07:19:28;57.17;;;31.90;;
51618;SDS011;38518;53.164;5.430;2023-02-15T07:21:54;63.00;;;36.00;;
51618;SDS011;38518;53.164;5.430;2023-02-15T07:24:20;53.08;;;33.90;;
51618;SDS011;38518;53.164;5.430;2023-02-15T07:26:45;54.15;;;33.80;;
51618;SDS011;38518;53.164;5.430;2023-02-15T07:29:11;60.25;;;36.42;;
51618;SDS011;38518;53.164;5.430;2023-02-15T07:31:37;59.65;;;36.28;;
51618;SDS011;38518;53.164;5.430;2023-02-15T07:34:03;65.25;;;37.85;;
51618;SDS011;38518;53.164;5.430;2023-02-15T07:36:31;62.65;;;36.88;;
51618;SDS011;38518;53.164;5.430;2023-02-15T07:38:57;59.80;;;36.97;;
51618;SDS011;38518;53.164;5.430;2023-02-15T07:41:23;67.93;;;38.90;;
51618;SDS011;38518;53.164;5.430;2023-02-15T07:43:49;73.60;;;39.33;;
51618;SDS011;38518;53.164;5.430;2023-02-15T07:46:15;72.13;;;38.92;;
51618;SDS011;38518;53.164;5.430;2023-02-15T07:48:45;72.65;;;40.13;;
51618;SDS011;38518;53.164;5.430;2023-02-15T07:51:11;72.78;;;41.90;;
51618;SDS011;38518;53.164;5.430;2023-02-15T07:53:41;65.60;;;39.22;;
51618;SDS011;38518;53.164;5.430;2023-02-15T07:56:09;73.70;;;42.13;;
51618;SDS011;38518;53.164;5.430;2023-02-15T07:58:36;82.20;;;61.03;;
51618;SDS011;38518;53.164;5.430;2023-02-15T08:01:21;72.68;;;43.53;;
51618;SDS011;38518;53.164;5.430;2023-02-15T08:03:47;84.88;;;46.20;;
51618;SDS011;38518;53.164;5.430;2023-02-15T08:06:13;78.70;;;43.50;;
51618;SDS011;38518;53.164;5.430;2023-02-15T08:08:40;81.60;;;44.47;;
51618;SDS011;38518;53.164;5.430;2023-02-15T08:11:13;81.85;;;47.28;;
51618;SDS011;38518;53.164;5.430;2023-02-15T08:16:37;79.28;;;43.38;;
51618;SDS011;38518;53.164;5.430;2023-02-15T08:21:36;72.82;;;45.00;;
51618;SDS011;38518;53.164;5.430;2023-02-15T08:24:03;65.15;;;41.70;;
51618;SDS011;38518;53.164;5.430;2023-02-15T08:26:31;65.13;;;40.30;;
51618;SDS011;38518;53.164;5.430;2023-02-15T08:28:58;54.65;;;38.30;;
51618;SDS011;38518;53.164;5.430;2023-02-15T08:31:24;58.75;;;42.33;;
51618;SDS011;38518;53.164;5.430;2023-02-15T08:33:53;60.45;;;37.80;;
51618;SDS011;38518;53.164;5.430;2023-02-15T08:36:21;63.60;;;40.95;;
51618;SDS011;38518;53.164;5.430;2023-02-15T08:38:49;65.00;;;41.60;;
51618;SDS011;38518;53.164;5.430;2023-02-15T08:41:22;59.70;;;39.30;;
51618;SDS011;38518;53.164;5.430;2023-02-15T08:43:55;58.03;;;38.75;;
51618;SDS011;38518;53.164;5.430;2023-02-15T08:46:26;55.30;;;36.38;;
51618;SDS011;38518;53.164;5.430;2023-02-15T08:48:53;53.28;;;39.30;;
51618;SDS011;38518;53.164;5.430;2023-02-15T08:51:21;66.07;;;43.55;;
51618;SDS011;38518;53.164;5.430;2023-02-15T08:53:50;62.13;;;42.58;;
51618;SDS011;38518;53.164;5.430;2023-02-15T08:56:18;56.13;;;42.38;;
51618;SDS011;38518;53.164;5.430;2023-02-15T08:58:45;55.80;;;41.35;;
51618;SDS011;38518;53.164;5.430;2023-02-15T09:01:16;51.30;;;35.00;;
51618;SDS011;38518;53.164;5.430;2023-02-15T09:03:43;54.03;;;42.55;;
51618;SDS011;38518;53.164;5.430;2023-02-15T09:06:10;52.30;;;36.22;;
51618;SDS011;38518;53.164;5.430;2023-02-15T09:08:36;51.95;;;34.53;;
51618;SDS011;38518;53.164;5.430;2023-02-15T09:11:16;49.47;;;33.53;;
51618;SDS011;38518;53.164;5.430;2023-02-15T09:13:57;48.45;;;38.85;;
51618;SDS011;38518;53.164;5.430;2023-02-15T09:16:28;49.42;;;38.95;;
51618;SDS011;38518;53.164;5.430;2023-02-15T09:18:55;45.33;;;37.45;;
51618;SDS011;38518;53.164;5.430;2023-02-15T09:21:26;49.00;;;39.33;;
51618;SDS011;38518;53.164;5.430;2023-02-15T09:23:55;43.60;;;36.75;;
51618;SDS011;38518;53.164;5.430;2023-02-15T09:26:25;51.50;;;39.88;;
51618;SDS011;38518;53.164;5.430;2023-02-15T09:28:54;45.88;;;36.42;;
51618;SDS011;38518;53.164;5.430;2023-02-15T09:31:22;44.58;;;36.65;;
51618;SDS011;38518;53.164;5.430;2023-02-15T09:33:51;42.47;;;35.47;;
51618;SDS011;38518;53.164;5.430;2023-02-15T09:36:20;43.15;;;35.22;;
51618;SDS011;38518;53.164;5.430;2023-02-15T09:38:57;43.85;;;34.22;;
51618;SDS011;38518;53.164;5.430;2023-02-15T09:58:23;41.70;;;31.85;;
51618;SDS011;38518;53.164;5.430;2023-02-15T10:03:44;41.47;;;29.80;;
51618;SDS011;38518;53.164;5.430;2023-02-15T10:09:15;39.80;;;33.78;;
51618;SDS011;38518;53.164;5.430;2023-02-15T10:11:54;40.38;;;32.78;;
51618;SDS011;38518;53.164;5.430;2023-02-15T10:17:40;45.92;;;31.13;;
51618;SDS011;38518;53.164;5.430;2023-02-15T10:25:43;43.10;;;33.30;;
51618;SDS011;38518;53.164;5.430;2023-02-15T10:28:20;38.83;;;32.03;;
51618;SDS011;38518;53.164;5.430;2023-02-15T10:30:53;38.38;;;30.83;;
51618;SDS011;38518;53.164;5.430;2023-02-15T10:41:29;36.25;;;29.95;;
51618;SDS011;38518;53.164;5.430;2023-02-15T10:44:24;40.10;;;30.98;;
51618;SDS011;38518;53.164;5.430;2023-02-15T10:47:29;38.42;;;30.25;;
51618;SDS011;38518;53.164;5.430;2023-02-15T11:00:39;38.38;;;29.17;;
51618;SDS011;38518;53.164;5.430;2023-02-15T11:03:25;35.73;;;29.33;;
51618;SDS011;38518;53.164;5.430;2023-02-15T11:06:13;35.70;;;29.92;;
51618;SDS011;38518;53.164;5.430;2023-02-15T11:08:43;34.28;;;28.88;;
51618;SDS011;38518;53.164;5.430;2023-02-15T11:14:31;34.60;;;28.60;;
51618;SDS011;38518;53.164;5.430;2023-02-15T11:22:35;37.05;;;29.52;;
51618;SDS011;38518;53.164;5.430;2023-02-15T11:25:01;34.70;;;28.60;;
51618;SDS011;38518;53.164;5.430;2023-02-15T11:27:39;38.97;;;30.33;;
51618;SDS011;38518;53.164;5.430;2023-02-15T11:30:09;34.83;;;28.55;;
51618;SDS011;38518;53.164;5.430;2023-02-15T11:32:44;42.72;;;31.58;;
51618;SDS011;38518;53.164;5.430;2023-02-15T11:40:21;42.50;;;33.15;;
51618;SDS011;38518;53.164;5.430;2023-02-15T11:46:30;40.70;;;32.75;;
51618;SDS011;38518;53.164;5.430;2023-02-15T11:48:59;39.95;;;32.20;;
51618;SDS011;38518;53.164;5.430;2023-02-15T11:51:24;40.67;;;32.58;;
51618;SDS011;38518;53.164;5.430;2023-02-15T11:53:53;40.63;;;32.20;;
51618;SDS011;38518;53.164;5.430;2023-02-15T11:56:23;40.40;;;32.70;;
51618;SDS011;38518;53.164;5.430;2023-02-15T11:58:59;39.70;;;31.80;;
51618;SDS011;38518;53.164;5.430;2023-02-15T12:01:30;40.55;;;33.10;;
51618;SDS011;38518;53.164;5.430;2023-02-15T12:06:41;35.88;;;29.70;;
51618;SDS011;38518;53.164;5.430;2023-02-15T12:12:24;35.03;;;28.80;;
51618;SDS011;38518;53.164;5.430;2023-02-15T12:14:53;36.78;;;29.92;;
51618;SDS011;38518;53.164;5.430;2023-02-15T12:17:23;36.63;;;29.50;;
51618;SDS011;38518;53.164;5.430;2023-02-15T12:19:52;35.05;;;28.40;;
51618;SDS011;38518;53.164;5.430;2023-02-15T12:24:56;33.47;;;28.40;;
51618;SDS011;38518;53.164;5.430;2023-02-15T12:27:26;37.00;;;28.65;;
51618;SDS011;38518;53.164;5.430;2023-02-15T12:30:01;36.95;;;28.30;;
51618;SDS011;38518;53.164;5.430;2023-02-15T12:32:33;36.45;;;29.00;;
51618;SDS011;38518;53.164;5.430;2023-02-15T12:35:02;40.00;;;29.60;;
51618;SDS011;38518;53.164;5.430;2023-02-15T12:37:38;39.60;;;29.05;;
51618;SDS011;38518;53.164;5.430;2023-02-15T12:40:20;37.53;;;29.52;;
51618;SDS011;38518;53.164;5.430;2023-02-15T12:42:48;35.50;;;29.05;;
51618;SDS011;38518;53.164;5.430;2023-02-15T12:45:22;37.88;;;29.42;;
51618;SDS011;38518;53.164;5.430;2023-02-15T12:50:38;41.00;;;32.85;;
51618;SDS011;38518;53.164;5.430;2023-02-15T12:53:30;42.33;;;33.92;;
51618;SDS011;38518;53.164;5.430;2023-02-15T12:56:02;45.33;;;34.20;;
51618;SDS011;38518;53.164;5.430;2023-02-15T12:58:33;47.22;;;35.63;;
51618;SDS011;38518;53.164;5.430;2023-02-15T13:03:34;46.47;;;37.25;;
51618;SDS011;38518;53.164;5.430;2023-02-15T13:06:02;48.03;;;37.63;;
51618;SDS011;38518;53.164;5.430;2023-02-15T13:08:34;44.75;;;36.80;;
51618;SDS011;38518;53.164;5.430;2023-02-15T13:11:12;46.03;;;38.30;;
51618;SDS011;38518;53.164;5.430;2023-02-15T13:13:50;49.08;;;39.45;;
51618;SDS011;38518;53.164;5.430;2023-02-15T13:16:24;50.35;;;39.22;;
51618;SDS011;38518;53.164;5.430;2023-02-15T13:19:04;47.15;;;39.95;;
51618;SDS011;38518;53.164;5.430;2023-02-15T13:21:38;44.22;;;38.10;;
51618;SDS011;38518;53.164;5.430;2023-02-15T13:26:49;46.70;;;39.22;;
51618;SDS011;38518;53.164;5.430;2023-02-15T13:29:24;50.35;;;40.05;;
51618;SDS011;38518;53.164;5.430;2023-02-15T13:31:50;48.70;;;39.13;;
51618;SDS011;38518;53.164;5.430;2023-02-15T13:37:04;49.63;;;40.25;;
51618;SDS011;38518;53.164;5.430;2023-02-15T13:39:41;49.00;;;40.47;;
51618;SDS011;38518;53.164;5.430;2023-02-15T13:50:08;50.63;;;36.30;;
51618;SDS011;38518;53.164;5.430;2023-02-15T13:52:51;46.75;;;39.85;;
51618;SDS011;38518;53.164;5.430;2023-02-15T13:55:44;48.28;;;39.20;;
51618;SDS011;38518;53.164;5.430;2023-02-15T14:01:21;49.63;;;39.83;;
51618;SDS011;38518;53.164;5.430;2023-02-15T14:04:17;44.58;;;38.88;;
51618;SDS011;38518;53.164;5.430;2023-02-15T14:16:03;45.55;;;37.83;;
51618;SDS011;38518;53.164;5.430;2023-02-15T14:18:37;46.20;;;37.03;;
51618;SDS011;38518;53.164;5.430;2023-02-15T14:21:21;45.50;;;38.10;;
51618;SDS011;38518;53.164;5.430;2023-02-15T14:24:12;43.72;;;37.33;;
51618;SDS011;38518;53.164;5.430;2023-02-15T14:32:36;47.47;;;37.13;;
51618;SDS011;38518;53.164;5.430;2023-02-15T14:35:04;43.65;;;38.22;;
51618;SDS011;38518;53.164;5.430;2023-02-15T14:37:43;46.37;;;38.43;;
51618;SDS011;38518;53.164;5.430;2023-02-15T14:45:57;47.08;;;37.92;;
51618;SDS011;38518;53.164;5.430;2023-02-15T14:48:25;51.45;;;40.63;;
51618;SDS011;38518;53.164;5.430;2023-02-15T14:50:56;43.90;;;36.53;;
51618;SDS011;38518;53.164;5.430;2023-02-15T14:53:24;52.38;;;40.15;;
51618;SDS011;38518;53.164;5.430;2023-02-15T14:56:13;44.40;;;36.72;;
51618;SDS011;38518;53.164;5.430;2023-02-15T15:03:54;49.03;;;38.85;;
51618;SDS011;38518;53.164;5.430;2023-02-15T15:06:30;49.38;;;39.78;;
51618;SDS011;38518;53.164;5.430;2023-02-15T15:09:09;49.65;;;40.50;;
51618;SDS011;38518;53.164;5.430;2023-02-15T15:11:53;49.10;;;39.78;;
51618;SDS011;38518;53.164;5.430;2023-02-15T15:16:59;51.53;;;41.97;;
51618;SDS011;38518;53.164;5.430;2023-02-15T15:22:23;54.85;;;43.00;;
51618;SDS011;38518;53.164;5.430;2023-02-15T15:27:39;51.78;;;42.13;;
51618;SDS011;38518;53.164;5.430;2023-02-15T15:32:59;55.92;;;44.53;;
51618;SDS011;38518;53.164;5.430;2023-02-15T15:38:39;52.15;;;42.67;;
51618;SDS011;38518;53.164;5.430;2023-02-15T15:41:42;55.05;;;45.22;;
51618;SDS011;38518;53.164;5.430;2023-02-15T15:50:10;59.20;;;46.88;;
51618;SDS011;38518;53.164;5.430;2023-02-15T15:52:52;56.95;;;43.78;;
51618;SDS011;38518;53.164;5.430;2023-02-15T15:55:21;56.13;;;42.40;;
51618;SDS011;38518;53.164;5.430;2023-02-15T15:57:53;63.63;;;41.28;;
51618;SDS011;38518;53.164;5.430;2023-02-15T16:02:52;67.03;;;41.63;;
51618;SDS011;38518;53.164;5.430;2023-02-15T16:05:18;58.15;;;45.22;;
51618;SDS011;38518;53.164;5.430;2023-02-15T16:07:45;54.67;;;45.35;;
51618;SDS011;38518;53.164;5.430;2023-02-15T16:10:21;60.17;;;45.35;;
51618;SDS011;38518;53.164;5.430;2023-02-15T16:12:49;56.13;;;46.08;;
51618;SDS011;38518;53.164;5.430;2023-02-15T16:15:20;62.42;;;47.28;;
51618;SDS011;38518;53.164;5.430;2023-02-15T16:17:49;59.00;;;46.78;;
51618;SDS011;38518;53.164;5.430;2023-02-15T16:20:25;58.95;;;47.00;;
51618;SDS011;38518;53.164;5.430;2023-02-15T16:23:16;63.08;;;48.25;;
51618;SDS011;38518;53.164;5.430;2023-02-15T16:28:38;66.45;;;43.67;;
51618;SDS011;38518;53.164;5.430;2023-02-15T16:31:11;60.20;;;47.33;;
51618;SDS011;38518;53.164;5.430;2023-02-15T16:33:40;58.45;;;46.85;;
51618;SDS011;38518;53.164;5.430;2023-02-15T16:36:11;62.45;;;49.55;;
51618;SDS011;38518;53.164;5.430;2023-02-15T16:41:20;63.95;;;50.13;;
51618;SDS011;38518;53.164;5.430;2023-02-15T16:43:47;60.33;;;50.10;;
51618;SDS011;38518;53.164;5.430;2023-02-15T16:46:23;61.17;;;48.78;;
51618;SDS011;38518;53.164;5.430;2023-02-15T16:48:51;62.17;;;49.42;;
51618;SDS011;38518;53.164;5.430;2023-02-15T16:51:19;63.60;;;51.03;;
51618;SDS011;38518;53.164;5.430;2023-02-15T16:53:47;62.55;;;49.53;;
51618;SDS011;38518;53.164;5.430;2023-02-15T16:56:13;62.58;;;51.45;;
51618;SDS011;38518;53.164;5.430;2023-02-15T16:58:42;63.72;;;51.58;;
51618;SDS011;38518;53.164;5.430;2023-02-15T17:01:11;65.85;;;51.50;;
51618;SDS011;38518;53.164;5.430;2023-02-15T17:03:40;69.30;;;46.72;;
51618;SDS011;38518;53.164;5.430;2023-02-15T17:06:23;63.17;;;50.40;;
51618;SDS011;38518;53.164;5.430;2023-02-15T17:08:51;69.15;;;45.95;;
51618;SDS011;38518;53.164;5.430;2023-02-15T17:11:18;66.28;;;54.05;;
51618;SDS011;38518;53.164;5.430;2023-02-15T17:16:41;71.90;;;54.03;;
51618;SDS011;38518;53.164;5.430;2023-02-15T17:19:31;70.07;;;54.85;;
51618;SDS011;38518;53.164;5.430;2023-02-15T17:22:04;72.75;;;50.92;;
51618;SDS011;38518;53.164;5.430;2023-02-15T17:24:41;73.25;;;48.42;;
51618;SDS011;38518;53.164;5.430;2023-02-15T17:30:04;77.72;;;48.05;;
51618;SDS011;38518;53.164;5.430;2023-02-15T17:32:54;73.80;;;52.28;;
51618;SDS011;38518;53.164;5.430;2023-02-15T17:35:23;71.65;;;56.47;;
51618;SDS011;38518;53.164;5.430;2023-02-15T17:40:32;71.38;;;55.83;;
51618;SDS011;38518;53.164;5.430;2023-02-15T17:42:59;76.50;;;50.28;;
51618;SDS011;38518;53.164;5.430;2023-02-15T17:45:27;73.30;;;57.75;;
51618;SDS011;38518;53.164;5.430;2023-02-15T17:47:57;76.53;;;50.30;;
51618;SDS011;38518;53.164;5.430;2023-02-15T17:50:26;73.78;;;59.40;;
51618;SDS011;38518;53.164;5.430;2023-02-15T17:52:53;71.60;;;57.25;;
51618;SDS011;38518;53.164;5.430;2023-02-15T17:55:21;76.95;;;53.35;;
51618;SDS011;38518;53.164;5.430;2023-02-15T17:58:01;80.80;;;56.15;;
51618;SDS011;38518;53.164;5.430;2023-02-15T18:00:32;80.78;;;50.28;;
51618;SDS011;38518;53.164;5.430;2023-02-15T18:03:19;77.88;;;51.80;;